sensor_id;sensor_type;location;lat;lon;timestamp;P1;durP1;ratioP1;P2;durP2;ratioP2
3347;SDS011;1687;49.540;8.574;2023-06-10T00:01:41;15.47;;;10.33;;
3347;SDS011;1687;49.540;8.574;2023-06-10T00:04:08;15.00;;;8.83;;
3347;SDS011;1687;49.540;8.574;2023-06-10T00:06:34;15.20;;;9.67;;
3347;SDS011;1687;49.540;8.574;2023-06-10T00:09:03;16.60;;;9.30;;
3347;SDS011;1687;49.540;8.574;2023-06-10T00:11:30;18.03;;;9.50;;
3347;SDS011;1687;49.540;8.574;2023-06-10T00:13:57;20.33;;;9.23;;
3347;SDS011;1687;49.540;8.574;2023-06-10T00:16:23;17.50;;;9.73;;
3347;SDS011;1687;49.540;8.574;2023-06-10T00:18:50;12.70;;;8.57;;
3347;SDS011;1687;49.540;8.574;2023-06-10T00:21:20;15.77;;;9.80;;
3347;SDS011;1687;49.540;8.574;2023-06-10T00:23:47;14.37;;;9.83;;
3347;SDS011;1687;49.540;8.574;2023-06-10T00:26:12;15.60;;;9.90;;
3347;SDS011;1687;49.540;8.574;2023-06-10T00:28:38;12.80;;;8.77;;
3347;SDS011;1687;49.540;8.574;2023-06-10T00:31:04;14.20;;;9.10;;
3347;SDS011;1687;49.540;8.574;2023-06-10T00:33:30;13.17;;;8.80;;
3347;SDS011;1687;49.540;8.574;2023-06-10T00:35:56;17.47;;;8.83;;
3347;SDS011;1687;49.540;8.574;2023-06-10T00:38:21;18.20;;;10.37;;
3347;SDS011;1687;49.540;8.574;2023-06-10T00:40:47;21.03;;;10.13;;
3347;SDS011;1687;49.540;8.574;2023-06-10T00:43:13;13.00;;;9.60;;
3347;SDS011;1687;49.540;8.574;2023-06-10T00:45:38;14.33;;;8.90;;
3347;SDS011;1687;49.540;8.574;2023-06-10T00:48:04;13.43;;;8.67;;
3347;SDS011;1687;49.540;8.574;2023-06-10T00:50:30;10.27;;;7.47;;
3347;SDS011;1687;49.540;8.574;2023-06-10T00:52:56;16.23;;;9.30;;
3347;SDS011;1687;49.540;8.574;2023-06-10T00:55:23;25.00;;;7.97;;
3347;SDS011;1687;49.540;8.574;2023-06-10T00:57:52;11.17;;;7.40;;
3347;SDS011;1687;49.540;8.574;2023-06-10T01:00:18;10.63;;;7.30;;
3347;SDS011;1687;49.540;8.574;2023-06-10T01:02:45;9.83;;;7.20;;
3347;SDS011;1687;49.540;8.574;2023-06-10T01:05:11;11.67;;;7.27;;
3347;SDS011;1687;49.540;8.574;2023-06-10T01:07:43;9.93;;;6.63;;
3347;SDS011;1687;49.540;8.574;2023-06-10T01:10:24;11.70;;;7.60;;
3347;SDS011;1687;49.540;8.574;2023-06-10T01:12:59;8.13;;;6.70;;
3347;SDS011;1687;49.540;8.574;2023-06-10T01:15:31;8.50;;;6.33;;
3347;SDS011;1687;49.540;8.574;2023-06-10T01:17:58;11.73;;;7.40;;
3347;SDS011;1687;49.540;8.574;2023-06-10T01:20:34;16.13;;;6.47;;
3347;SDS011;1687;49.540;8.574;2023-06-10T01:23:05;14.70;;;7.00;;
3347;SDS011;1687;49.540;8.574;2023-06-10T01:25:31;10.90;;;7.50;;
3347;SDS011;1687;49.540;8.574;2023-06-10T01:33:27;9.77;;;6.67;;
3347;SDS011;1687;49.540;8.574;2023-06-10T01:35:56;10.33;;;6.73;;
3347;SDS011;1687;49.540;8.574;2023-06-10T01:38:23;11.70;;;7.63;;
3347;SDS011;1687;49.540;8.574;2023-06-10T01:40:52;10.40;;;6.87;;
3347;SDS011;1687;49.540;8.574;2023-06-10T01:43:20;11.37;;;7.80;;
3347;SDS011;1687;49.540;8.574;2023-06-10T01:45:46;14.80;;;7.70;;
3347;SDS011;1687;49.540;8.574;2023-06-10T01:48:12;12.07;;;7.60;;
3347;SDS011;1687;49.540;8.574;2023-06-10T01:50:38;12.83;;;8.33;;
3347;SDS011;1687;49.540;8.574;2023-06-10T01:53:04;16.77;;;8.63;;
3347;SDS011;1687;49.540;8.574;2023-06-10T01:55:33;13.37;;;7.17;;
3347;SDS011;1687;49.540;8.574;2023-06-10T01:57:58;15.83;;;7.40;;
3347;SDS011;1687;49.540;8.574;2023-06-10T02:00:24;16.50;;;7.20;;
3347;SDS011;1687;49.540;8.574;2023-06-10T02:02:50;15.73;;;8.00;;
3347;SDS011;1687;49.540;8.574;2023-06-10T02:05:15;11.27;;;7.63;;
3347;SDS011;1687;49.540;8.574;2023-06-10T02:07:41;13.13;;;7.40;;
3347;SDS011;1687;49.540;8.574;2023-06-10T02:10:07;14.27;;;8.00;;
3347;SDS011;1687;49.540;8.574;2023-06-10T02:12:33;12.60;;;7.70;;
3347;SDS011;1687;49.540;8.574;2023-06-10T02:14:59;12.93;;;8.20;;
3347;SDS011;1687;49.540;8.574;2023-06-10T02:17:24;11.60;;;7.67;;
3347;SDS011;1687;49.540;8.574;2023-06-10T02:19:51;13.77;;;7.23;;
3347;SDS011;1687;49.540;8.574;2023-06-10T02:22:21;11.90;;;8.00;;
3347;SDS011;1687;49.540;8.574;2023-06-10T02:24:48;15.80;;;9.07;;
3347;SDS011;1687;49.540;8.574;2023-06-10T02:27:15;18.50;;;9.40;;
3347;SDS011;1687;49.540;8.574;2023-06-10T02:29:41;11.37;;;8.13;;
3347;SDS011;1687;49.540;8.574;2023-06-10T02:32:08;16.20;;;9.50;;
3347;SDS011;1687;49.540;8.574;2023-06-10T02:34:34;17.80;;;9.00;;
3347;SDS011;1687;49.540;8.574;2023-06-10T02:37:01;19.13;;;9.87;;
3347;SDS011;1687;49.540;8.574;2023-06-10T02:39:27;17.90;;;10.30;;
3347;SDS011;1687;49.540;8.574;2023-06-10T02:41:53;14.27;;;9.90;;
3347;SDS011;1687;49.540;8.574;2023-06-10T02:44:19;17.10;;;10.67;;
3347;SDS011;1687;49.540;8.574;2023-06-10T02:46:45;20.07;;;9.70;;
3347;SDS011;1687;49.540;8.574;2023-06-10T02:49:11;14.83;;;9.97;;
3347;SDS011;1687;49.540;8.574;2023-06-10T02:51:37;12.73;;;8.80;;
3347;SDS011;1687;49.540;8.574;2023-06-10T02:54:03;16.17;;;10.43;;
3347;SDS011;1687;49.540;8.574;2023-06-10T02:56:30;42.97;;;10.37;;
3347;SDS011;1687;49.540;8.574;2023-06-10T02:58:56;14.07;;;9.73;;
3347;SDS011;1687;49.540;8.574;2023-06-10T03:01:22;12.97;;;8.60;;
3347;SDS011;1687;49.540;8.574;2023-06-10T03:03:48;13.57;;;9.20;;
3347;SDS011;1687;49.540;8.574;2023-06-10T03:06:15;13.47;;;8.63;;
3347;SDS011;1687;49.540;8.574;2023-06-10T03:08:41;15.80;;;10.17;;
3347;SDS011;1687;49.540;8.574;2023-06-10T03:11:07;16.63;;;9.57;;
3347;SDS011;1687;49.540;8.574;2023-06-10T03:13:33;18.07;;;9.70;;
3347;SDS011;1687;49.540;8.574;2023-06-10T03:15:59;23.00;;;9.27;;
3347;SDS011;1687;49.540;8.574;2023-06-10T03:18:25;19.10;;;10.13;;
3347;SDS011;1687;49.540;8.574;2023-06-10T03:20:52;16.20;;;9.47;;
3347;SDS011;1687;49.540;8.574;2023-06-10T03:23:20;15.40;;;9.57;;
3347;SDS011;1687;49.540;8.574;2023-06-10T03:25:46;14.37;;;9.27;;
3347;SDS011;1687;49.540;8.574;2023-06-10T03:28:11;25.20;;;10.60;;
3347;SDS011;1687;49.540;8.574;2023-06-10T03:30:37;21.20;;;9.27;;
3347;SDS011;1687;49.540;8.574;2023-06-10T03:33:03;14.77;;;9.10;;
3347;SDS011;1687;49.540;8.574;2023-06-10T03:35:29;19.73;;;10.43;;
3347;SDS011;1687;49.540;8.574;2023-06-10T03:37:56;16.23;;;9.27;;
3347;SDS011;1687;49.540;8.574;2023-06-10T03:40:22;16.00;;;9.57;;
3347;SDS011;1687;49.540;8.574;2023-06-10T03:42:48;19.13;;;9.30;;
3347;SDS011;1687;49.540;8.574;2023-06-10T03:45:13;15.97;;;9.70;;
3347;SDS011;1687;49.540;8.574;2023-06-10T03:47:39;17.30;;;10.40;;
3347;SDS011;1687;49.540;8.574;2023-06-10T03:50:06;25.67;;;11.93;;
3347;SDS011;1687;49.540;8.574;2023-06-10T03:52:33;15.83;;;10.53;;
3347;SDS011;1687;49.540;8.574;2023-06-10T03:55:00;16.30;;;10.53;;
3347;SDS011;1687;49.540;8.574;2023-06-10T03:57:25;17.27;;;10.53;;
3347;SDS011;1687;49.540;8.574;2023-06-10T03:59:51;18.60;;;10.17;;
3347;SDS011;1687;49.540;8.574;2023-06-10T04:02:17;15.07;;;9.83;;
3347;SDS011;1687;49.540;8.574;2023-06-10T04:04:43;16.27;;;10.60;;
3347;SDS011;1687;49.540;8.574;2023-06-10T04:07:09;18.03;;;12.07;;
3347;SDS011;1687;49.540;8.574;2023-06-10T04:09:36;18.13;;;11.17;;
3347;SDS011;1687;49.540;8.574;2023-06-10T04:12:02;18.70;;;12.17;;
3347;SDS011;1687;49.540;8.574;2023-06-10T04:14:31;18.93;;;10.43;;
3347;SDS011;1687;49.540;8.574;2023-06-10T04:16:56;18.30;;;11.53;;
3347;SDS011;1687;49.540;8.574;2023-06-10T04:19:22;19.53;;;11.17;;
3347;SDS011;1687;49.540;8.574;2023-06-10T04:21:48;18.90;;;12.20;;
3347;SDS011;1687;49.540;8.574;2023-06-10T04:24:13;19.57;;;11.20;;
3347;SDS011;1687;49.540;8.574;2023-06-10T04:26:39;17.73;;;11.73;;
3347;SDS011;1687;49.540;8.574;2023-06-10T04:29:05;21.53;;;12.03;;
3347;SDS011;1687;49.540;8.574;2023-06-10T04:31:30;22.63;;;13.43;;
3347;SDS011;1687;49.540;8.574;2023-06-10T04:33:57;23.60;;;12.20;;
3347;SDS011;1687;49.540;8.574;2023-06-10T04:36:23;18.07;;;11.97;;
3347;SDS011;1687;49.540;8.574;2023-06-10T04:38:48;16.80;;;11.47;;
3347;SDS011;1687;49.540;8.574;2023-06-10T04:41:16;21.47;;;11.93;;
3347;SDS011;1687;49.540;8.574;2023-06-10T04:43:42;15.53;;;10.70;;
3347;SDS011;1687;49.540;8.574;2023-06-10T04:46:08;22.23;;;13.27;;
3347;SDS011;1687;49.540;8.574;2023-06-10T04:48:35;20.73;;;12.20;;
3347;SDS011;1687;49.540;8.574;2023-06-10T04:51:01;20.23;;;13.10;;
3347;SDS011;1687;49.540;8.574;2023-06-10T04:53:26;20.40;;;12.33;;
3347;SDS011;1687;49.540;8.574;2023-06-10T04:55:53;15.27;;;11.03;;
3347;SDS011;1687;49.540;8.574;2023-06-10T04:58:19;18.43;;;11.80;;
3347;SDS011;1687;49.540;8.574;2023-06-10T05:00:45;22.50;;;13.43;;
3347;SDS011;1687;49.540;8.574;2023-06-10T05:03:10;23.80;;;11.03;;
3347;SDS011;1687;49.540;8.574;2023-06-10T05:05:36;22.30;;;12.07;;
3347;SDS011;1687;49.540;8.574;2023-06-10T05:08:02;17.63;;;11.90;;
3347;SDS011;1687;49.540;8.574;2023-06-10T05:10:27;29.00;;;13.20;;
3347;SDS011;1687;49.540;8.574;2023-06-10T05:12:56;22.67;;;13.17;;
3347;SDS011;1687;49.540;8.574;2023-06-10T05:15:23;21.70;;;12.10;;
3347;SDS011;1687;49.540;8.574;2023-06-10T05:17:49;23.47;;;13.03;;
3347;SDS011;1687;49.540;8.574;2023-06-10T05:20:15;23.30;;;14.70;;
3347;SDS011;1687;49.540;8.574;2023-06-10T05:22:41;20.67;;;13.00;;
3347;SDS011;1687;49.540;8.574;2023-06-10T05:25:07;18.27;;;12.10;;
3347;SDS011;1687;49.540;8.574;2023-06-10T05:27:33;25.17;;;13.40;;
3347;SDS011;1687;49.540;8.574;2023-06-10T05:29:58;21.63;;;12.20;;
3347;SDS011;1687;49.540;8.574;2023-06-10T05:32:24;15.97;;;11.83;;
3347;SDS011;1687;49.540;8.574;2023-06-10T05:34:50;17.73;;;11.57;;
3347;SDS011;1687;49.540;8.574;2023-06-10T05:37:15;26.93;;;12.47;;
3347;SDS011;1687;49.540;8.574;2023-06-10T05:39:41;18.47;;;11.20;;
3347;SDS011;1687;49.540;8.574;2023-06-10T05:42:07;18.97;;;10.70;;
3347;SDS011;1687;49.540;8.574;2023-06-10T05:44:33;20.03;;;11.93;;
3347;SDS011;1687;49.540;8.574;2023-06-10T05:46:59;20.73;;;12.37;;
3347;SDS011;1687;49.540;8.574;2023-06-10T05:49:25;17.57;;;12.57;;
3347;SDS011;1687;49.540;8.574;2023-06-10T05:51:52;26.00;;;11.63;;
3347;SDS011;1687;49.540;8.574;2023-06-10T05:54:17;18.00;;;10.87;;
3347;SDS011;1687;49.540;8.574;2023-06-10T05:56:43;16.63;;;11.17;;
3347;SDS011;1687;49.540;8.574;2023-06-10T05:59:09;16.33;;;10.60;;
3347;SDS011;1687;49.540;8.574;2023-06-10T06:01:35;21.73;;;10.70;;
3347;SDS011;1687;49.540;8.574;2023-06-10T06:04:01;16.77;;;10.00;;
3347;SDS011;1687;49.540;8.574;2023-06-10T06:06:26;14.90;;;10.30;;
3347;SDS011;1687;49.540;8.574;2023-06-10T06:08:52;13.33;;;9.20;;
3347;SDS011;1687;49.540;8.574;2023-06-10T06:11:18;22.87;;;10.90;;
3347;SDS011;1687;49.540;8.574;2023-06-10T06:13:44;16.87;;;10.20;;
3347;SDS011;1687;49.540;8.574;2023-06-10T06:16:10;15.90;;;11.50;;
3347;SDS011;1687;49.540;8.574;2023-06-10T06:18:35;20.00;;;10.23;;
3347;SDS011;1687;49.540;8.574;2023-06-10T06:21:01;13.27;;;8.77;;
3347;SDS011;1687;49.540;8.574;2023-06-10T06:23:26;13.50;;;7.87;;
3347;SDS011;1687;49.540;8.574;2023-06-10T06:25:52;12.67;;;8.13;;
3347;SDS011;1687;49.540;8.574;2023-06-10T06:28:18;15.60;;;9.10;;
3347;SDS011;1687;49.540;8.574;2023-06-10T06:30:45;15.87;;;8.57;;
3347;SDS011;1687;49.540;8.574;2023-06-10T06:33:11;11.73;;;8.57;;
3347;SDS011;1687;49.540;8.574;2023-06-10T06:35:38;18.70;;;8.57;;
3347;SDS011;1687;49.540;8.574;2023-06-10T06:38:05;12.60;;;8.00;;
3347;SDS011;1687;49.540;8.574;2023-06-10T06:40:30;26.60;;;7.37;;
3347;SDS011;1687;49.540;8.574;2023-06-10T06:42:56;11.07;;;7.40;;
3347;SDS011;1687;49.540;8.574;2023-06-10T06:45:22;10.53;;;7.13;;
3347;SDS011;1687;49.540;8.574;2023-06-10T06:47:47;13.30;;;8.77;;
3347;SDS011;1687;49.540;8.574;2023-06-10T06:50:13;13.70;;;8.27;;
3347;SDS011;1687;49.540;8.574;2023-06-10T06:52:39;9.20;;;6.60;;
3347;SDS011;1687;49.540;8.574;2023-06-10T06:55:05;8.13;;;6.13;;
3347;SDS011;1687;49.540;8.574;2023-06-10T06:57:31;8.90;;;6.40;;
3347;SDS011;1687;49.540;8.574;2023-06-10T06:59:57;9.30;;;6.27;;
3347;SDS011;1687;49.540;8.574;2023-06-10T07:02:22;13.93;;;7.37;;
3347;SDS011;1687;49.540;8.574;2023-06-10T07:04:48;9.70;;;6.50;;
3347;SDS011;1687;49.540;8.574;2023-06-10T07:07:14;8.30;;;5.83;;
3347;SDS011;1687;49.540;8.574;2023-06-10T07:09:40;16.73;;;5.67;;
3347;SDS011;1687;49.540;8.574;2023-06-10T07:12:06;10.60;;;6.90;;
3347;SDS011;1687;49.540;8.574;2023-06-10T07:14:33;8.87;;;5.97;;
3347;SDS011;1687;49.540;8.574;2023-06-10T07:16:58;9.90;;;6.23;;
3347;SDS011;1687;49.540;8.574;2023-06-10T07:19:24;9.13;;;6.20;;
3347;SDS011;1687;49.540;8.574;2023-06-10T07:21:50;8.30;;;6.57;;
3347;SDS011;1687;49.540;8.574;2023-06-10T07:24:15;7.90;;;6.00;;
3347;SDS011;1687;49.540;8.574;2023-06-10T07:26:41;7.37;;;5.40;;
3347;SDS011;1687;49.540;8.574;2023-06-10T07:29:07;9.43;;;5.70;;
3347;SDS011;1687;49.540;8.574;2023-06-10T07:31:32;9.57;;;5.77;;
3347;SDS011;1687;49.540;8.574;2023-06-10T07:33:58;9.33;;;5.93;;
3347;SDS011;1687;49.540;8.574;2023-06-10T07:36:24;9.17;;;5.67;;
3347;SDS011;1687;49.540;8.574;2023-06-10T07:38:52;6.70;;;5.13;;
3347;SDS011;1687;49.540;8.574;2023-06-10T07:41:18;8.10;;;5.63;;
3347;SDS011;1687;49.540;8.574;2023-06-10T07:43:44;13.33;;;5.30;;
3347;SDS011;1687;49.540;8.574;2023-06-10T07:46:10;7.60;;;5.97;;
3347;SDS011;1687;49.540;8.574;2023-06-10T07:48:36;8.57;;;5.70;;
3347;SDS011;1687;49.540;8.574;2023-06-10T07:51:01;7.87;;;4.93;;
3347;SDS011;1687;49.540;8.574;2023-06-10T07:53:27;8.50;;;6.30;;
3347;SDS011;1687;49.540;8.574;2023-06-10T07:55:53;11.30;;;6.47;;
3347;SDS011;1687;49.540;8.574;2023-06-10T07:58:19;9.60;;;5.00;;
3347;SDS011;1687;49.540;8.574;2023-06-10T08:00:44;8.70;;;6.27;;
3347;SDS011;1687;49.540;8.574;2023-06-10T08:03:11;6.80;;;5.93;;
3347;SDS011;1687;49.540;8.574;2023-06-10T08:05:36;11.33;;;6.53;;
3347;SDS011;1687;49.540;8.574;2023-06-10T08:08:04;8.97;;;5.80;;
3347;SDS011;1687;49.540;8.574;2023-06-10T08:10:30;7.83;;;5.90;;
3347;SDS011;1687;49.540;8.574;2023-06-10T08:12:55;9.10;;;5.80;;
3347;SDS011;1687;49.540;8.574;2023-06-10T08:15:22;7.43;;;5.00;;
3347;SDS011;1687;49.540;8.574;2023-06-10T08:17:47;8.70;;;5.97;;
3347;SDS011;1687;49.540;8.574;2023-06-10T08:20:13;7.57;;;5.97;;
3347;SDS011;1687;49.540;8.574;2023-06-10T08:22:39;15.83;;;6.60;;
3347;SDS011;1687;49.540;8.574;2023-06-10T08:25:04;9.30;;;6.03;;
3347;SDS011;1687;49.540;8.574;2023-06-10T08:27:30;7.80;;;6.00;;
3347;SDS011;1687;49.540;8.574;2023-06-10T08:29:56;11.20;;;6.20;;
3347;SDS011;1687;49.540;8.574;2023-06-10T08:32:23;15.80;;;6.73;;
3347;SDS011;1687;49.540;8.574;2023-06-10T08:34:48;18.40;;;6.03;;
3347;SDS011;1687;49.540;8.574;2023-06-10T08:37:14;8.30;;;6.20;;
3347;SDS011;1687;49.540;8.574;2023-06-10T08:39:40;8.77;;;6.63;;
3347;SDS011;1687;49.540;8.574;2023-06-10T08:42:24;6.93;;;6.23;;
3347;SDS011;1687;49.540;8.574;2023-06-10T08:45:03;6.57;;;5.50;;
3347;SDS011;1687;49.540;8.574;2023-06-10T08:47:30;8.03;;;6.00;;
3347;SDS011;1687;49.540;8.574;2023-06-10T08:50:03;8.97;;;6.97;;
3347;SDS011;1687;49.540;8.574;2023-06-10T08:52:34;8.10;;;6.17;;
3347;SDS011;1687;49.540;8.574;2023-06-10T08:55:15;29.77;;;7.93;;
3347;SDS011;1687;49.540;8.574;2023-06-10T08:57:50;8.60;;;6.23;;
3347;SDS011;1687;49.540;8.574;2023-06-10T09:00:17;9.03;;;7.27;;
3347;SDS011;1687;49.540;8.574;2023-06-10T09:02:43;6.67;;;5.87;;
3347;SDS011;1687;49.540;8.574;2023-06-10T09:05:09;8.70;;;7.00;;
3347;SDS011;1687;49.540;8.574;2023-06-10T09:07:35;13.20;;;7.17;;
3347;SDS011;1687;49.540;8.574;2023-06-10T09:10:02;8.20;;;5.43;;
3347;SDS011;1687;49.540;8.574;2023-06-10T09:12:31;9.10;;;6.70;;
3347;SDS011;1687;49.540;8.574;2023-06-10T09:14:58;12.13;;;6.70;;
3347;SDS011;1687;49.540;8.574;2023-06-10T09:17:25;11.30;;;6.03;;
3347;SDS011;1687;49.540;8.574;2023-06-10T09:19:52;10.87;;;6.93;;
3347;SDS011;1687;49.540;8.574;2023-06-10T09:22:20;9.97;;;6.57;;
3347;SDS011;1687;49.540;8.574;2023-06-10T09:24:51;10.63;;;6.70;;
3347;SDS011;1687;49.540;8.574;2023-06-10T09:27:29;9.23;;;6.07;;
3347;SDS011;1687;49.540;8.574;2023-06-10T09:29:57;10.47;;;7.07;;
3347;SDS011;1687;49.540;8.574;2023-06-10T09:32:23;8.10;;;5.93;;
3347;SDS011;1687;49.540;8.574;2023-06-10T09:34:50;9.83;;;6.50;;
3347;SDS011;1687;49.540;8.574;2023-06-10T09:37:25;9.20;;;6.00;;
3347;SDS011;1687;49.540;8.574;2023-06-10T09:42:33;8.50;;;5.87;;
3347;SDS011;1687;49.540;8.574;2023-06-10T09:45:04;6.43;;;5.50;;
3347;SDS011;1687;49.540;8.574;2023-06-10T09:47:32;8.17;;;6.27;;
3347;SDS011;1687;49.540;8.574;2023-06-10T09:49:58;12.23;;;6.97;;
3347;SDS011;1687;49.540;8.574;2023-06-10T09:52:25;8.30;;;6.57;;
3347;SDS011;1687;49.540;8.574;2023-06-10T09:54:53;7.00;;;5.80;;
3347;SDS011;1687;49.540;8.574;2023-06-10T09:57:24;7.83;;;5.63;;
3347;SDS011;1687;49.540;8.574;2023-06-10T09:59:53;9.50;;;5.90;;
3347;SDS011;1687;49.540;8.574;2023-06-10T10:02:20;9.07;;;6.00;;
3347;SDS011;1687;49.540;8.574;2023-06-10T10:04:46;7.97;;;6.10;;
3347;SDS011;1687;49.540;8.574;2023-06-10T10:07:12;8.30;;;5.70;;
3347;SDS011;1687;49.540;8.574;2023-06-10T10:09:39;6.50;;;5.50;;
3347;SDS011;1687;49.540;8.574;2023-06-10T10:12:08;7.83;;;6.30;;
3347;SDS011;1687;49.540;8.574;2023-06-10T10:14:40;8.30;;;6.10;;
3347;SDS011;1687;49.540;8.574;2023-06-10T10:17:11;7.40;;;5.83;;
3347;SDS011;1687;49.540;8.574;2023-06-10T10:19:45;9.80;;;6.47;;
3347;SDS011;1687;49.540;8.574;2023-06-10T10:22:36;7.53;;;5.87;;
3347;SDS011;1687;49.540;8.574;2023-06-10T10:25:04;6.53;;;5.90;;
3347;SDS011;1687;49.540;8.574;2023-06-10T10:27:36;7.03;;;5.80;;
3347;SDS011;1687;49.540;8.574;2023-06-10T10:30:08;6.47;;;5.73;;
3347;SDS011;1687;49.540;8.574;2023-06-10T10:32:42;7.00;;;5.43;;
3347;SDS011;1687;49.540;8.574;2023-06-10T10:35:50;9.50;;;5.53;;
3347;SDS011;1687;49.540;8.574;2023-06-10T10:38:18;8.33;;;5.40;;
3347;SDS011;1687;49.540;8.574;2023-06-10T10:40:44;7.37;;;5.63;;
3347;SDS011;1687;49.540;8.574;2023-06-10T10:43:12;9.33;;;5.33;;
3347;SDS011;1687;49.540;8.574;2023-06-10T10:45:39;19.73;;;5.40;;
3347;SDS011;1687;49.540;8.574;2023-06-10T10:48:08;8.60;;;4.97;;
3347;SDS011;1687;49.540;8.574;2023-06-10T10:50:37;7.10;;;5.07;;
3347;SDS011;1687;49.540;8.574;2023-06-10T10:53:04;5.70;;;4.77;;
3347;SDS011;1687;49.540;8.574;2023-06-10T10:55:31;6.00;;;4.80;;
3347;SDS011;1687;49.540;8.574;2023-06-10T11:05:38;19.47;;;5.20;;
3347;SDS011;1687;49.540;8.574;2023-06-10T11:08:12;5.50;;;4.90;;
3347;SDS011;1687;49.540;8.574;2023-06-10T11:10:51;8.03;;;4.77;;
3347;SDS011;1687;49.540;8.574;2023-06-10T11:13:20;5.90;;;4.73;;
3347;SDS011;1687;49.540;8.574;2023-06-10T11:15:47;7.30;;;4.70;;
3347;SDS011;1687;49.540;8.574;2023-06-10T11:18:25;4.40;;;3.80;;
3347;SDS011;1687;49.540;8.574;2023-06-10T11:20:53;6.93;;;5.17;;
3347;SDS011;1687;49.540;8.574;2023-06-10T11:28:42;4.97;;;4.47;;
3347;SDS011;1687;49.540;8.574;2023-06-10T11:31:29;4.53;;;3.83;;
3347;SDS011;1687;49.540;8.574;2023-06-10T11:36:24;6.20;;;3.80;;
3347;SDS011;1687;49.540;8.574;2023-06-10T11:38:53;4.60;;;3.83;;
3347;SDS011;1687;49.540;8.574;2023-06-10T11:41:23;22.00;;;4.53;;
3347;SDS011;1687;49.540;8.574;2023-06-10T11:43:53;6.17;;;4.87;;
3347;SDS011;1687;49.540;8.574;2023-06-10T11:46:21;5.10;;;4.27;;
3347;SDS011;1687;49.540;8.574;2023-06-10T11:48:54;4.50;;;3.87;;
3347;SDS011;1687;49.540;8.574;2023-06-10T11:51:28;4.90;;;4.37;;
3347;SDS011;1687;49.540;8.574;2023-06-10T11:53:58;6.90;;;3.67;;
3347;SDS011;1687;49.540;8.574;2023-06-10T11:56:24;6.23;;;4.87;;
3347;SDS011;1687;49.540;8.574;2023-06-10T12:01:22;5.20;;;4.37;;
3347;SDS011;1687;49.540;8.574;2023-06-10T12:03:59;5.80;;;4.50;;
3347;SDS011;1687;49.540;8.574;2023-06-10T12:09:18;5.80;;;4.10;;
3347;SDS011;1687;49.540;8.574;2023-06-10T12:11:48;10.10;;;4.63;;
3347;SDS011;1687;49.540;8.574;2023-06-10T12:20:01;7.33;;;4.60;;
3347;SDS011;1687;49.540;8.574;2023-06-10T12:22:39;10.10;;;4.50;;
3347;SDS011;1687;49.540;8.574;2023-06-10T12:25:07;9.30;;;3.63;;
3347;SDS011;1687;49.540;8.574;2023-06-10T12:27:34;6.50;;;4.37;;
3347;SDS011;1687;49.540;8.574;2023-06-10T12:30:02;4.40;;;3.97;;
3347;SDS011;1687;49.540;8.574;2023-06-10T12:32:43;5.30;;;4.13;;
3347;SDS011;1687;49.540;8.574;2023-06-10T12:35:11;8.30;;;3.33;;
3347;SDS011;1687;49.540;8.574;2023-06-10T12:37:39;4.93;;;4.33;;
3347;SDS011;1687;49.540;8.574;2023-06-10T12:40:05;5.30;;;4.17;;
3347;SDS011;1687;49.540;8.574;2023-06-10T12:42:33;6.63;;;4.50;;
3347;SDS011;1687;49.540;8.574;2023-06-10T12:45:01;6.17;;;4.10;;
3347;SDS011;1687;49.540;8.574;2023-06-10T12:47:33;5.17;;;4.17;;
3347;SDS011;1687;49.540;8.574;2023-06-10T12:50:01;4.50;;;3.40;;
3347;SDS011;1687;49.540;8.574;2023-06-10T12:52:28;5.43;;;4.30;;
3347;SDS011;1687;49.540;8.574;2023-06-10T12:54:54;6.47;;;3.67;;
3347;SDS011;1687;49.540;8.574;2023-06-10T12:57:20;5.90;;;4.13;;
3347;SDS011;1687;49.540;8.574;2023-06-10T12:59:47;6.73;;;5.00;;
3347;SDS011;1687;49.540;8.574;2023-06-10T13:02:22;4.97;;;3.83;;
3347;SDS011;1687;49.540;8.574;2023-06-10T13:04:49;7.37;;;3.97;;
3347;SDS011;1687;49.540;8.574;2023-06-10T13:07:16;8.60;;;4.03;;
3347;SDS011;1687;49.540;8.574;2023-06-10T13:09:42;6.60;;;3.87;;
3347;SDS011;1687;49.540;8.574;2023-06-10T13:12:08;5.40;;;4.17;;
3347;SDS011;1687;49.540;8.574;2023-06-10T13:14:35;7.50;;;4.37;;
3347;SDS011;1687;49.540;8.574;2023-06-10T13:17:04;5.23;;;4.13;;
3347;SDS011;1687;49.540;8.574;2023-06-10T13:19:33;5.43;;;4.10;;
3347;SDS011;1687;49.540;8.574;2023-06-10T13:21:59;5.30;;;4.20;;
3347;SDS011;1687;49.540;8.574;2023-06-10T13:24:24;4.10;;;3.70;;
3347;SDS011;1687;49.540;8.574;2023-06-10T13:26:52;6.20;;;4.63;;
3347;SDS011;1687;49.540;8.574;2023-06-10T13:29:19;5.37;;;3.70;;
3347;SDS011;1687;49.540;8.574;2023-06-10T13:31:45;3.67;;;3.37;;
3347;SDS011;1687;49.540;8.574;2023-06-10T13:34:11;4.13;;;3.73;;
3347;SDS011;1687;49.540;8.574;2023-06-10T13:36:37;5.00;;;3.60;;
3347;SDS011;1687;49.540;8.574;2023-06-10T13:39:02;5.53;;;3.70;;
3347;SDS011;1687;49.540;8.574;2023-06-10T13:41:28;7.53;;;4.00;;
3347;SDS011;1687;49.540;8.574;2023-06-10T13:43:54;3.80;;;3.50;;
3347;SDS011;1687;49.540;8.574;2023-06-10T13:46:20;2.80;;;2.60;;
3347;SDS011;1687;49.540;8.574;2023-06-10T13:48:49;3.57;;;3.27;;
3347;SDS011;1687;49.540;8.574;2023-06-10T13:51:14;3.10;;;2.90;;
3347;SDS011;1687;49.540;8.574;2023-06-10T13:53:40;15.27;;;3.30;;
3347;SDS011;1687;49.540;8.574;2023-06-10T13:56:06;3.47;;;3.17;;
3347;SDS011;1687;49.540;8.574;2023-06-10T13:58:32;2.93;;;2.73;;
3347;SDS011;1687;49.540;8.574;2023-06-10T14:00:58;2.90;;;2.70;;
3347;SDS011;1687;49.540;8.574;2023-06-10T14:03:25;2.65;;;2.55;;
3347;SDS011;1687;49.540;8.574;2023-06-10T14:05:50;2.63;;;2.42;;
3347;SDS011;1687;49.540;8.574;2023-06-10T14:08:16;2.30;;;2.20;;
3347;SDS011;1687;49.540;8.574;2023-06-10T14:10:42;2.67;;;2.58;;
3347;SDS011;1687;49.540;8.574;2023-06-10T14:13:08;2.63;;;1.90;;
3347;SDS011;1687;49.540;8.574;2023-06-10T14:15:34;1.98;;;1.88;;
3347;SDS011;1687;49.540;8.574;2023-06-10T14:18:00;3.33;;;1.65;;
3347;SDS011;1687;49.540;8.574;2023-06-10T14:20:26;1.65;;;1.60;;
3347;SDS011;1687;49.540;8.574;2023-06-10T14:22:55;2.55;;;1.60;;
3347;SDS011;1687;49.540;8.574;2023-06-10T14:25:20;1.98;;;1.88;;
3347;SDS011;1687;49.540;8.574;2023-06-10T14:27:46;2.00;;;1.90;;
3347;SDS011;1687;49.540;8.574;2023-06-10T14:30:12;1.80;;;1.70;;
3347;SDS011;1687;49.540;8.574;2023-06-10T14:32:38;1.63;;;1.52;;
3347;SDS011;1687;49.540;8.574;2023-06-10T14:35:04;1.33;;;1.23;;
3347;SDS011;1687;49.540;8.574;2023-06-10T14:37:30;1.50;;;1.50;;
3347;SDS011;1687;49.540;8.574;2023-06-10T14:39:55;1.58;;;1.50;;
3347;SDS011;1687;49.540;8.574;2023-06-10T14:42:21;1.50;;;1.50;;
3347;SDS011;1687;49.540;8.574;2023-06-10T14:44:47;1.20;;;1.20;;
3347;SDS011;1687;49.540;8.574;2023-06-10T14:47:12;1.80;;;1.70;;
3347;SDS011;1687;49.540;8.574;2023-06-10T14:49:40;1.70;;;1.70;;
3347;SDS011;1687;49.540;8.574;2023-06-10T14:52:07;1.95;;;1.85;;
3347;SDS011;1687;49.540;8.574;2023-06-10T14:54:33;2.40;;;2.30;;
3347;SDS011;1687;49.540;8.574;2023-06-10T14:56:59;2.35;;;2.25;;
3347;SDS011;1687;49.540;8.574;2023-06-10T14:59:25;2.35;;;2.25;;
3347;SDS011;1687;49.540;8.574;2023-06-10T15:01:50;1.85;;;1.75;;
3347;SDS011;1687;49.540;8.574;2023-06-10T15:04:16;2.15;;;2.05;;
3347;SDS011;1687;49.540;8.574;2023-06-10T15:06:42;2.05;;;1.95;;
3347;SDS011;1687;49.540;8.574;2023-06-10T15:09:08;2.00;;;1.90;;
3347;SDS011;1687;49.540;8.574;2023-06-10T15:11:34;1.88;;;1.77;;
3347;SDS011;1687;49.540;8.574;2023-06-10T15:14:00;2.47;;;1.70;;
3347;SDS011;1687;49.540;8.574;2023-06-10T15:16:26;2.05;;;1.95;;
3347;SDS011;1687;49.540;8.574;2023-06-10T15:18:51;1.55;;;1.55;;
3347;SDS011;1687;49.540;8.574;2023-06-10T15:21:17;7.63;;;1.50;;
3347;SDS011;1687;49.540;8.574;2023-06-10T15:23:43;1.63;;;1.63;;
3347;SDS011;1687;49.540;8.574;2023-06-10T15:26:09;4.10;;;1.75;;
3347;SDS011;1687;49.540;8.574;2023-06-10T15:28:35;2.08;;;1.50;;
3347;SDS011;1687;49.540;8.574;2023-06-10T15:31:00;4.03;;;1.60;;
3347;SDS011;1687;49.540;8.574;2023-06-10T15:33:26;1.60;;;1.50;;
3347;SDS011;1687;49.540;8.574;2023-06-10T15:35:52;1.48;;;1.38;;
3347;SDS011;1687;49.540;8.574;2023-06-10T15:38:17;1.40;;;1.40;;
3347;SDS011;1687;49.540;8.574;2023-06-10T15:40:43;1.70;;;1.60;;